Time;durP1;ratioP1;P1;durP2;ratioP2;P2;SDS_P1;SDS_P2;PMS_P1;PMS_P2;Temp;Humidity;BMP_temperature;BMP_pressure;BME280_temperature;BME280_humidity;BME280_pressure;Samples;Min_cycle;Max_cycle;Signal;HPM_P1;HPM_P2
2022/03/17 00:00:11;;;;;;;75.45;38.70;;;;;;;;;;4946499;28;20044;-81
2022/03/17 00:02:37;;;;;;;78.30;40.33;;;;;;;;;;4943707;28;20077;-83
2022/03/17 00:05:04;;;;;;;84.35;40.97;;;;;;;;;;4953846;28;20059;-82
2022/03/17 00:07:30;;;;;;;82.95;42.60;;;;;;;;;;4945391;28;20044;-83
2022/03/17 00:09:57;;;;;;;78.75;40.45;;;;;;;;;;4942436;28;20053;-81
2022/03/17 00:12:23;;;;;;;84.32;42.58;;;;;;;;;;4930818;28;20045;-81
2022/03/17 00:14:51;;;;;;;83.43;41.20;;;;;;;;;;4945564;28;20066;-81
2022/03/17 00:17:17;;;;;;;79.75;40.72;;;;;;;;;;4936997;28;20489;-81
2022/03/17 00:19:42;;;;;;;83.32;40.40;;;;;;;;;;4958691;28;20035;-81
2022/03/17 00:22:08;;;;;;;81.22;40.10;;;;;;;;;;4942057;28;20127;-81
2022/03/17 00:24:37;;;;;;;82.80;40.58;;;;;;;;;;4930651;28;20043;-81
2022/03/17 00:27:06;;;;;;;84.28;42.28;;;;;;;;;;4945979;28;20517;-81
2022/03/17 00:29:33;;;;;;;78.47;39.45;;;;;;;;;;4929080;29;20036;-81
2022/03/17 00:31:59;;;;;;;80.22;40.70;;;;;;;;;;4940204;28;20119;-81
2022/03/17 00:34:25;;;;;;;81.55;41.22;;;;;;;;;;4938041;28;20043;-82
2022/03/17 00:36:50;;;;;;;76.05;39.97;;;;;;;;;;4941947;28;20051;-81
2022/03/17 00:39:16;;;;;;;85.18;42.17;;;;;;;;;;4971939;28;20467;-81
2022/03/17 00:41:43;;;;;;;77.70;40.33;;;;;;;;;;4968704;28;20078;-81
2022/03/17 00:44:09;;;;;;;78.18;39.67;;;;;;;;;;4948465;28;20167;-82
2022/03/17 00:46:36;;;;;;;77.90;38.92;;;;;;;;;;4941688;28;20038;-81
2022/03/17 00:49:01;;;;;;;83.97;41.78;;;;;;;;;;4950228;28;20047;-81
2022/03/17 00:51:27;;;;;;;82.53;42.47;;;;;;;;;;4956100;28;20043;-81
2022/03/17 00:53:54;;;;;;;84.38;41.28;;;;;;;;;;4949966;28;20618;-81
2022/03/17 00:56:20;;;;;;;91.38;44.88;;;;;;;;;;4952292;28;20551;-81
2022/03/17 00:58:48;;;;;;;93.53;45.22;;;;;;;;;;4971680;28;20042;-81
2022/03/17 01:01:15;;;;;;;90.70;43.47;;;;;;;;;;4958684;28;20564;-81
2022/03/17 01:03:44;;;;;;;98.55;46.55;;;;;;;;;;4954597;28;20136;-81
2022/03/17 01:06:10;;;;;;;106.30;47.00;;;;;;;;;;4955046;28;20043;-81
2022/03/17 01:08:37;;;;;;;103.22;48.75;;;;;;;;;;4949545;28;20532;-81
2022/03/17 01:11:03;;;;;;;108.90;49.88;;;;;;;;;;4937843;28;20063;-81
2022/03/17 01:13:29;;;;;;;103.22;47.92;;;;;;;;;;4960027;28;20408;-81
2022/03/17 01:15:54;;;;;;;105.53;46.67;;;;;;;;;;4952186;28;20047;-83
2022/03/17 01:18:21;;;;;;;97.80;46.28;;;;;;;;;;4970696;28;20039;-81
2022/03/17 01:20:47;;;;;;;96.53;45.42;;;;;;;;;;4951833;28;20063;-81
2022/03/17 01:23:13;;;;;;;86.97;43.20;;;;;;;;;;4944279;28;20039;-81
2022/03/17 01:25:39;;;;;;;87.70;44.40;;;;;;;;;;4951226;28;20047;-82
2022/03/17 01:28:05;;;;;;;83.90;41.78;;;;;;;;;;4970346;28;20062;-81
2022/03/17 01:30:30;;;;;;;89.53;44.83;;;;;;;;;;4956694;28;20047;-81
2022/03/17 01:32:56;;;;;;;96.05;46.40;;;;;;;;;;4939431;28;20039;-81
2022/03/17 01:35:22;;;;;;;89.65;44.53;;;;;;;;;;4967339;28;20097;-81
2022/03/17 01:37:48;;;;;;;90.82;44.97;;;;;;;;;;4954697;28;20043;-81
2022/03/17 01:40:14;;;;;;;86.13;45.10;;;;;;;;;;4966692;28;20043;-81
2022/03/17 01:42:39;;;;;;;88.07;44.60;;;;;;;;;;4947971;28;20073;-80
2022/03/17 01:45:06;;;;;;;96.53;46.60;;;;;;;;;;4982707;28;20554;-81
2022/03/17 01:47:33;;;;;;;108.88;50.60;;;;;;;;;;4939627;28;20039;-81
2022/03/17 01:50:04;;;;;;;112.07;49.63;;;;;;;;;;4935653;28;20055;-81
2022/03/17 01:52:30;;;;;;;111.00;51.58;;;;;;;;;;4962024;28;20509;-81
2022/03/17 01:54:56;;;;;;;115.95;52.58;;;;;;;;;;4958802;28;20047;-80
2022/03/17 01:57:22;;;;;;;110.38;50.42;;;;;;;;;;4961394;28;20057;-81
2022/03/17 01:59:49;;;;;;;108.82;49.55;;;;;;;;;;4950755;28;20523;-81
2022/03/17 02:02:15;;;;;;;101.85;46.78;;;;;;;;;;4936963;28;20375;-81
2022/03/17 02:04:41;;;;;;;97.18;47.70;;;;;;;;;;4952499;28;20404;-81
2022/03/17 02:07:08;;;;;;;91.30;46.25;;;;;;;;;;4969345;28;20046;-81
2022/03/17 02:09:35;;;;;;;88.07;44.78;;;;;;;;;;4952588;28;20047;-81
2022/03/17 02:14:54;;;;;;;92.50;45.88;;;;;;;;;;4969916;28;20078;-81
2022/03/17 02:17:21;;;;;;;85.80;43.70;;;;;;;;;;4949682;28;20515;-81
2022/03/17 02:19:47;;;;;;;89.35;45.78;;;;;;;;;;4969551;28;20562;-81
2022/03/17 02:22:15;;;;;;;82.68;44.83;;;;;;;;;;4967915;28;20100;-81
2022/03/17 02:27:29;;;;;;;86.43;44.65;;;;;;;;;;4962211;28;20046;-81
2022/03/17 02:29:54;;;;;;;85.15;44.17;;;;;;;;;;4968927;28;20066;-81
2022/03/17 02:32:20;;;;;;;88.15;45.40;;;;;;;;;;4968454;28;20038;-81
2022/03/17 02:34:46;;;;;;;85.00;45.38;;;;;;;;;;4982403;28;20044;-81
2022/03/17 02:37:12;;;;;;;92.57;47.70;;;;;;;;;;4983636;28;20062;-80
2022/03/17 02:39:39;;;;;;;92.05;48.00;;;;;;;;;;4956395;28;20113;-81
2022/03/17 02:42:05;;;;;;;101.22;47.58;;;;;;;;;;4963911;28;20062;-81
2022/03/17 02:44:32;;;;;;;94.97;45.45;;;;;;;;;;4952075;28;20034;-81
2022/03/17 02:46:57;;;;;;;87.40;46.50;;;;;;;;;;4940307;28;20061;-81
2022/03/17 02:49:23;;;;;;;93.25;46.00;;;;;;;;;;4945728;28;20635;-81
2022/03/17 02:51:49;;;;;;;89.45;45.53;;;;;;;;;;4953796;28;20452;-81
2022/03/17 02:54:15;;;;;;;84.78;44.78;;;;;;;;;;4965566;28;20432;-81
2022/03/17 02:56:40;;;;;;;83.30;42.85;;;;;;;;;;4967124;28;20070;-81
2022/03/17 02:59:06;;;;;;;89.72;45.05;;;;;;;;;;4939474;28;20139;-81
2022/03/17 03:01:32;;;;;;;88.13;45.60;;;;;;;;;;4948119;28;20126;-81
2022/03/17 03:03:58;;;;;;;84.22;45.63;;;;;;;;;;4953474;28;20051;-81
2022/03/17 03:06:23;;;;;;;91.78;46.50;;;;;;;;;;4937268;28;20097;-81
2022/03/17 03:08:49;;;;;;;89.13;46.25;;;;;;;;;;4956930;28;20038;-82
2022/03/17 03:11:15;;;;;;;92.45;46.95;;;;;;;;;;4950067;28;20416;-81
2022/03/17 03:13:40;;;;;;;94.75;47.53;;;;;;;;;;4946762;28;20066;-81
2022/03/17 03:16:06;;;;;;;95.97;49.25;;;;;;;;;;4933882;28;20449;-81
2022/03/17 03:18:32;;;;;;;95.50;49.33;;;;;;;;;;4954323;28;20067;-81
2022/03/17 03:20:58;;;;;;;96.63;48.08;;;;;;;;;;4934221;28;20450;-81
2022/03/17 03:23:23;;;;;;;92.53;47.58;;;;;;;;;;4954852;28;20101;-81
2022/03/17 03:25:49;;;;;;;103.93;52.38;;;;;;;;;;4954879;28;20066;-81
2022/03/17 03:28:15;;;;;;;101.43;50.15;;;;;;;;;;4942262;28;20081;-81
2022/03/17 03:30:41;;;;;;;98.63;50.47;;;;;;;;;;4950116;28;20039;-81
2022/03/17 03:33:07;;;;;;;99.82;50.95;;;;;;;;;;4954038;28;20390;-80
2022/03/17 03:38:19;;;;;;;96.07;49.88;;;;;;;;;;4964172;28;20057;-81
2022/03/17 03:40:47;;;;;;;94.57;49.08;;;;;;;;;;4959345;28;20042;-81
2022/03/17 03:43:13;;;;;;;101.63;53.28;;;;;;;;;;4956116;28;20047;-81
2022/03/17 03:45:39;;;;;;;99.22;52.40;;;;;;;;;;4954108;28;20382;-81
2022/03/17 03:48:05;;;;;;;101.45;53.47;;;;;;;;;;4938007;28;20071;-81
2022/03/17 03:50:31;;;;;;;97.28;50.92;;;;;;;;;;4941491;28;20047;-81
2022/03/17 03:52:58;;;;;;;94.25;51.13;;;;;;;;;;4945497;28;20099;-81
2022/03/17 03:55:24;;;;;;;105.55;54.22;;;;;;;;;;4939965;28;20870;-81
2022/03/17 03:57:50;;;;;;;97.13;53.13;;;;;;;;;;4948901;28;20463;-80
2022/03/17 04:02:55;;;;;;;93.15;52.13;;;;;;;;;;4964189;28;20047;-80
2022/03/17 04:05:24;;;;;;;94.10;50.72;;;;;;;;;;4964871;28;20047;-80
2022/03/17 04:07:51;;;;;;;89.03;50.47;;;;;;;;;;4954469;28;20502;-80
2022/03/17 04:10:16;;;;;;;95.57;52.55;;;;;;;;;;4962162;28;20448;-81
2022/03/17 04:12:42;;;;;;;100.97;52.78;;;;;;;;;;4965532;28;20039;-80
2022/03/17 04:15:08;;;;;;;103.63;55.42;;;;;;;;;;4968635;28;20062;-80
2022/03/17 04:17:35;;;;;;;99.95;54.22;;;;;;;;;;4959335;28;20034;-80
2022/03/17 04:20:01;;;;;;;101.68;54.95;;;;;;;;;;4983964;28;20067;-80
2022/03/17 04:22:27;;;;;;;100.10;56.25;;;;;;;;;;4937651;28;20054;-80
2022/03/17 04:24:53;;;;;;;98.28;52.53;;;;;;;;;;4935887;28;20574;-80
2022/03/17 04:27:19;;;;;;;97.85;52.90;;;;;;;;;;4945029;28;20455;-80
2022/03/17 04:29:45;;;;;;;97.63;52.30;;;;;;;;;;4960735;28;20122;-80
2022/03/17 04:32:10;;;;;;;90.88;52.38;;;;;;;;;;4964178;28;20516;-80
2022/03/17 04:34:36;;;;;;;100.95;55.00;;;;;;;;;;4949478;28;20046;-80
2022/03/17 04:37:02;;;;;;;102.63;55.08;;;;;;;;;;4947463;28;20051;-80
2022/03/17 04:39:27;;;;;;;100.70;54.53;;;;;;;;;;4951405;28;20042;-80
2022/03/17 04:41:53;;;;;;;106.00;57.30;;;;;;;;;;4942910;28;20115;-80
2022/03/17 04:44:19;;;;;;;113.65;57.80;;;;;;;;;;4932464;28;20125;-80
2022/03/17 04:46:46;;;;;;;114.05;58.80;;;;;;;;;;4964363;28;20054;-80
2022/03/17 04:49:12;;;;;;;115.75;58.17;;;;;;;;;;4962931;28;20126;-80
2022/03/17 04:51:38;;;;;;;111.97;58.40;;;;;;;;;;4929705;28;20048;-80
2022/03/17 04:54:04;;;;;;;101.45;57.00;;;;;;;;;;4943855;28;20042;-80
2022/03/17 04:56:29;;;;;;;101.53;56.35;;;;;;;;;;4937779;28;20043;-80
2022/03/17 04:58:56;;;;;;;95.45;52.65;;;;;;;;;;4934412;28;20062;-80
2022/03/17 05:01:23;;;;;;;97.65;54.20;;;;;;;;;;4962003;28;20059;-85
2022/03/17 05:03:49;;;;;;;102.65;55.05;;;;;;;;;;4954278;28;20340;-81
2022/03/17 05:06:16;;;;;;;97.07;53.35;;;;;;;;;;4942447;28;20047;-81
2022/03/17 05:08:42;;;;;;;95.32;55.97;;;;;;;;;;4931268;28;20070;-81
2022/03/17 05:11:09;;;;;;;108.43;57.25;;;;;;;;;;4947996;28;20515;-81
2022/03/17 05:13:36;;;;;;;102.18;57.38;;;;;;;;;;4946465;28;20043;-81
2022/03/17 05:16:02;;;;;;;104.88;57.10;;;;;;;;;;4934801;28;20110;-81
2022/03/17 05:18:28;;;;;;;98.55;56.10;;;;;;;;;;4932530;28;20513;-81
2022/03/17 05:20:53;;;;;;;101.93;56.60;;;;;;;;;;4943947;28;20058;-81
2022/03/17 05:23:20;;;;;;;107.95;57.95;;;;;;;;;;4934807;28;20070;-81
2022/03/17 05:25:48;;;;;;;98.00;54.78;;;;;;;;;;4947248;28;20042;-81
2022/03/17 05:28:14;;;;;;;101.28;55.35;;;;;;;;;;4961638;28;20148;-81
2022/03/17 05:30:41;;;;;;;102.75;57.97;;;;;;;;;;4946395;28;20040;-81
2022/03/17 05:33:08;;;;;;;101.95;57.38;;;;;;;;;;4965758;28;20512;-81
2022/03/17 05:35:34;;;;;;;105.50;57.58;;;;;;;;;;4952435;28;20050;-81
2022/03/17 05:38:00;;;;;;;102.55;57.40;;;;;;;;;;4930718;28;20516;-81
2022/03/17 05:40:26;;;;;;;106.55;59.17;;;;;;;;;;4945442;28;20492;-81
2022/03/17 05:42:55;;;;;;;107.18;59.72;;;;;;;;;;4941998;28;20136;-82
2022/03/17 05:45:22;;;;;;;109.55;61.17;;;;;;;;;;4969145;28;20528;-82
2022/03/17 05:47:50;;;;;;;105.72;60.53;;;;;;;;;;4938331;28;20043;-81
2022/03/17 05:50:20;;;;;;;113.55;63.10;;;;;;;;;;4967130;28;20072;-81
2022/03/17 05:52:46;;;;;;;109.30;61.17;;;;;;;;;;4946800;28;20559;-81
2022/03/17 05:55:13;;;;;;;107.55;61.47;;;;;;;;;;4940223;28;20127;-80
2022/03/17 05:57:42;;;;;;;112.07;61.83;;;;;;;;;;4943362;28;20073;-80
2022/03/17 06:00:11;;;;;;;117.65;64.63;;;;;;;;;;4945439;28;20085;-81
2022/03/17 06:02:37;;;;;;;115.15;62.72;;;;;;;;;;4954855;28;20094;-80
2022/03/17 06:05:04;;;;;;;114.15;61.72;;;;;;;;;;4938241;28;20049;-79
2022/03/17 06:07:37;;;;;;;112.65;63.08;;;;;;;;;;4927538;28;20051;-81
2022/03/17 06:10:08;;;;;;;112.07;63.70;;;;;;;;;;4955639;28;20047;-79
2022/03/17 06:12:34;;;;;;;114.70;61.17;;;;;;;;;;4943285;28;20043;-80
2022/03/17 06:15:02;;;;;;;108.43;60.55;;;;;;;;;;4972334;28;20047;-80
2022/03/17 06:17:41;;;;;;;104.90;61.22;;;;;;;;;;4965968;28;20045;-81
2022/03/17 06:20:09;;;;;;;106.90;59.40;;;;;;;;;;4949339;28;20531;-80
2022/03/17 06:22:37;;;;;;;111.32;61.88;;;;;;;;;;4959695;28;20187;-80
2022/03/17 06:25:02;;;;;;;109.10;64.68;;;;;;;;;;4935280;28;20045;-81
2022/03/17 06:27:28;;;;;;;111.97;62.10;;;;;;;;;;4935571;28;20058;-83
2022/03/17 06:29:54;;;;;;;117.97;66.43;;;;;;;;;;4951407;28;20047;-81
2022/03/17 06:32:20;;;;;;;116.40;64.38;;;;;;;;;;4944825;28;20119;-81
2022/03/17 06:34:45;;;;;;;108.53;62.92;;;;;;;;;;4943187;28;20118;-81
2022/03/17 06:37:11;;;;;;;111.20;62.50;;;;;;;;;;4944850;28;20094;-79
2022/03/17 06:39:37;;;;;;;101.22;61.38;;;;;;;;;;4944508;28;20111;-79
2022/03/17 06:42:03;;;;;;;111.13;65.93;;;;;;;;;;4950331;28;20074;-80
2022/03/17 06:44:28;;;;;;;112.18;64.40;;;;;;;;;;4944564;28;20477;-80
2022/03/17 06:46:54;;;;;;;111.68;62.45;;;;;;;;;;4966615;28;20042;-80
2022/03/17 06:49:20;;;;;;;102.80;59.28;;;;;;;;;;4965016;28;20097;-79
2022/03/17 06:51:45;;;;;;;106.05;61.67;;;;;;;;;;4958241;28;20046;-80
2022/03/17 06:54:11;;;;;;;112.65;66.30;;;;;;;;;;4956738;28;20039;-80
2022/03/17 06:56:37;;;;;;;111.60;62.00;;;;;;;;;;4967060;28;20128;-80
2022/03/17 06:59:02;;;;;;;109.57;63.35;;;;;;;;;;4944366;28;20507;-81
2022/03/17 07:01:28;;;;;;;103.55;63.30;;;;;;;;;;4946236;28;20093;-80
2022/03/17 07:03:54;;;;;;;104.53;62.40;;;;;;;;;;4949326;28;20523;-81
2022/03/17 07:06:20;;;;;;;112.32;62.70;;;;;;;;;;4967107;28;20102;-81
2022/03/17 07:08:46;;;;;;;109.72;64.85;;;;;;;;;;4973769;28;20222;-81
2022/03/17 07:11:12;;;;;;;106.28;63.38;;;;;;;;;;4947104;28;20047;-81
2022/03/17 07:13:38;;;;;;;108.63;64.30;;;;;;;;;;4948680;28;20074;-81
2022/03/17 07:16:04;;;;;;;110.60;63.35;;;;;;;;;;4949205;28;20039;-80
2022/03/17 07:18:30;;;;;;;105.88;61.78;;;;;;;;;;4930373;28;20039;-80
2022/03/17 07:20:57;;;;;;;102.32;63.17;;;;;;;;;;4952958;28;20875;-80
2022/03/17 07:23:24;;;;;;;104.15;62.95;;;;;;;;;;4955890;28;20045;-81
2022/03/17 07:25:49;;;;;;;101.88;62.08;;;;;;;;;;4930940;28;20756;-80
2022/03/17 07:28:15;;;;;;;108.43;64.50;;;;;;;;;;4965448;28;20114;-80
2022/03/17 07:30:41;;;;;;;104.03;63.30;;;;;;;;;;4957750;28;20089;-80
2022/03/17 07:33:07;;;;;;;105.32;64.38;;;;;;;;;;4943055;28;20035;-79
2022/03/17 07:35:33;;;;;;;107.95;63.65;;;;;;;;;;4962808;28;20404;-79
2022/03/17 07:37:59;;;;;;;104.82;62.33;;;;;;;;;;4960527;28;20109;-79
2022/03/17 07:40:26;;;;;;;98.07;59.83;;;;;;;;;;4947936;28;20488;-80
2022/03/17 07:42:51;;;;;;;99.22;61.25;;;;;;;;;;4963126;28;20042;-80
2022/03/17 07:45:17;;;;;;;98.95;60.53;;;;;;;;;;4947636;28;20118;-79
2022/03/17 07:47:47;;;;;;;101.40;61.33;;;;;;;;;;4938545;28;20197;-80
2022/03/17 07:50:13;;;;;;;101.93;63.35;;;;;;;;;;4960138;28;20461;-80
2022/03/17 07:52:39;;;;;;;100.63;60.63;;;;;;;;;;4955338;28;20054;-80
2022/03/17 07:55:05;;;;;;;104.93;62.30;;;;;;;;;;4962053;28;20047;-80
2022/03/17 07:57:32;;;;;;;101.68;62.30;;;;;;;;;;4960971;28;20038;-80
2022/03/17 07:59:58;;;;;;;101.85;62.75;;;;;;;;;;4964820;28;20362;-81
2022/03/17 08:02:24;;;;;;;97.53;59.25;;;;;;;;;;4944799;28;20043;-80
2022/03/17 08:04:50;;;;;;;99.55;59.47;;;;;;;;;;4964154;28;20524;-80
2022/03/17 08:07:16;;;;;;;93.32;59.03;;;;;;;;;;4937869;28;20051;-80
2022/03/17 08:09:43;;;;;;;99.95;60.53;;;;;;;;;;4929795;28;20035;-81
2022/03/17 08:12:09;;;;;;;95.40;60.35;;;;;;;;;;4963719;28;20047;-81
2022/03/17 08:14:35;;;;;;;101.32;62.65;;;;;;;;;;4963601;28;20046;-80
2022/03/17 08:17:01;;;;;;;100.97;64.32;;;;;;;;;;4945539;28;20051;-80
2022/03/17 08:19:26;;;;;;;98.53;62.20;;;;;;;;;;4939462;28;20437;-80
2022/03/17 08:21:54;;;;;;;96.18;61.38;;;;;;;;;;4944165;28;20117;-80
2022/03/17 08:24:19;;;;;;;100.95;63.42;;;;;;;;;;4933936;28;20134;-81
2022/03/17 08:26:45;;;;;;;100.40;62.58;;;;;;;;;;4936784;28;20460;-80
2022/03/17 08:29:11;;;;;;;102.45;63.08;;;;;;;;;;4948485;28;20291;-80
2022/03/17 08:31:37;;;;;;;99.68;63.50;;;;;;;;;;4965110;28;20047;-80
2022/03/17 08:34:02;;;;;;;98.03;62.22;;;;;;;;;;4956845;28;20469;-80
2022/03/17 08:36:28;;;;;;;99.25;64.13;;;;;;;;;;4947429;28;20273;-79
2022/03/17 08:38:54;;;;;;;102.88;62.70;;;;;;;;;;4948460;28;20051;-79
2022/03/17 08:41:20;;;;;;;103.65;64.78;;;;;;;;;;4949587;28;20342;-79
2022/03/17 08:43:47;;;;;;;97.18;63.05;;;;;;;;;;4946965;28;20046;-79
2022/03/17 08:51:41;;;;;;;96.53;61.35;;;;;;;;;;4957433;28;20160;-79
2022/03/17 08:54:07;;;;;;;98.47;61.28;;;;;;;;;;4938380;28;20424;-80
2022/03/17 08:56:34;;;;;;;97.18;61.55;;;;;;;;;;4954057;28;20130;-81
2022/03/17 08:59:00;;;;;;;93.93;60.90;;;;;;;;;;4939095;28;20500;-79
2022/03/17 09:01:26;;;;;;;102.60;63.28;;;;;;;;;;4965024;28;20480;-79
2022/03/17 09:03:53;;;;;;;93.80;61.75;;;;;;;;;;4950367;28;20070;-80
2022/03/17 09:06:18;;;;;;;95.53;60.15;;;;;;;;;;4957001;28;20087;-80
2022/03/17 09:08:44;;;;;;;100.18;63.08;;;;;;;;;;4961409;28;20536;-79
2022/03/17 09:11:13;;;;;;;100.32;63.47;;;;;;;;;;4967839;28;20557;-80
2022/03/17 09:13:40;;;;;;;94.63;59.90;;;;;;;;;;4962499;28;20043;-80
2022/03/17 09:16:06;;;;;;;89.78;60.08;;;;;;;;;;4959252;28;20051;-80
2022/03/17 09:18:32;;;;;;;93.05;58.78;;;;;;;;;;4954394;28;20043;-81
2022/03/17 09:21:01;;;;;;;88.32;60.40;;;;;;;;;;4933028;28;20043;-80
2022/03/17 09:23:31;;;;;;;92.63;58.45;;;;;;;;;;4950487;28;20039;-80
2022/03/17 09:25:57;;;;;;;88.68;59.83;;;;;;;;;;4948832;28;20045;-80
2022/03/17 09:28:22;;;;;;;89.90;58.55;;;;;;;;;;4942148;28;20043;-79
2022/03/17 09:30:52;;;;;;;92.00;58.28;;;;;;;;;;4965527;28;20045;-80
2022/03/17 09:33:18;;;;;;;91.75;60.05;;;;;;;;;;4948119;28;20043;-79
2022/03/17 09:35:44;;;;;;;91.97;60.45;;;;;;;;;;4949090;28;20635;-80
2022/03/17 09:38:10;;;;;;;89.72;59.17;;;;;;;;;;4953708;28;20041;-80
2022/03/17 09:40:36;;;;;;;90.75;60.75;;;;;;;;;;4945432;28;20731;-80
2022/03/17 09:43:18;;;;;;;92.20;59.65;;;;;;;;;;4941746;28;20065;-81
2022/03/17 09:45:46;;;;;;;88.82;57.80;;;;;;;;;;4951542;28;20047;-81
2022/03/17 09:48:13;;;;;;;84.07;56.58;;;;;;;;;;4949088;28;20047;-80
2022/03/17 09:50:39;;;;;;;90.32;59.20;;;;;;;;;;4994417;28;20208;-80
2022/03/17 09:53:06;;;;;;;84.13;57.22;;;;;;;;;;4965743;28;20098;-81
2022/03/17 09:55:33;;;;;;;84.57;55.38;;;;;;;;;;4950653;28;20042;-80
2022/03/17 09:57:59;;;;;;;83.30;55.88;;;;;;;;;;4950486;28;20050;-80
2022/03/17 10:00:47;;;;;;;86.20;55.33;;;;;;;;;;4949928;28;20071;-80
2022/03/17 10:03:10;;;;;;;82.38;56.80;;;;;;;;;;4957744;28;20066;-79
2022/03/17 10:05:36;;;;;;;81.20;55.53;;;;;;;;;;4963779;28;20485;-80
2022/03/17 10:08:02;;;;;;;85.70;56.13;;;;;;;;;;4937334;28;20048;-81
2022/03/17 10:10:38;;;;;;;86.05;57.20;;;;;;;;;;4972242;28;20061;-80
2022/03/17 10:13:16;;;;;;;84.13;56.47;;;;;;;;;;4960524;28;20042;-80
2022/03/17 10:15:47;;;;;;;82.38;56.72;;;;;;;;;;4939507;28;20125;-80
2022/03/17 10:18:24;;;;;;;78.93;54.58;;;;;;;;;;4982720;28;20487;-80
2022/03/17 10:21:16;;;;;;;86.10;56.10;;;;;;;;;;4965230;28;20097;-80
2022/03/17 10:23:50;;;;;;;83.25;57.42;;;;;;;;;;4939181;28;20118;-80
2022/03/17 10:26:32;;;;;;;80.90;53.92;;;;;;;;;;4960443;28;20164;-80
2022/03/17 10:29:15;;;;;;;84.20;56.33;;;;;;;;;;4946680;28;20047;-81
2022/03/17 10:31:52;;;;;;;81.47;53.33;;;;;;;;;;4945999;28;20118;-81
2022/03/17 10:34:22;;;;;;;85.13;54.58;;;;;;;;;;4951426;28;20045;-80
2022/03/17 10:36:48;;;;;;;88.00;54.88;;;;;;;;;;4963980;28;20069;-80
2022/03/17 10:39:14;;;;;;;81.50;55.97;;;;;;;;;;4998312;28;20077;-80
2022/03/17 10:41:45;;;;;;;78.07;52.90;;;;;;;;;;4947490;28;20039;-79
2022/03/17 10:44:12;;;;;;;80.00;53.72;;;;;;;;;;4975677;28;20408;-80
2022/03/17 10:46:39;;;;;;;80.47;53.50;;;;;;;;;;4966329;28;20054;-80
2022/03/17 10:49:07;;;;;;;76.20;52.92;;;;;;;;;;4966159;28;20109;-82
2022/03/17 10:51:36;;;;;;;78.57;53.13;;;;;;;;;;4950764;28;20412;-81
2022/03/17 10:54:04;;;;;;;69.85;49.45;;;;;;;;;;4968862;28;20035;-81
2022/03/17 10:56:30;;;;;;;70.88;50.20;;;;;;;;;;4966802;28;20077;-82
2022/03/17 10:58:56;;;;;;;66.15;47.42;;;;;;;;;;4964283;28;20043;-80
2022/03/17 11:01:45;;;;;;;71.22;49.75;;;;;;;;;;4957942;28;20031;-80
2022/03/17 11:04:11;;;;;;;65.32;46.65;;;;;;;;;;4950772;28;20043;-81
2022/03/17 11:06:38;;;;;;;74.38;49.92;;;;;;;;;;4966609;28;20043;-82
2022/03/17 11:09:08;;;;;;;63.05;46.53;;;;;;;;;;4966735;28;20500;-81
2022/03/17 11:11:36;;;;;;;62.97;45.60;;;;;;;;;;4952511;28;20043;-81
2022/03/17 11:14:02;;;;;;;65.53;46.25;;;;;;;;;;4945822;28;20138;-80
2022/03/17 11:16:43;;;;;;;66.00;45.78;;;;;;;;;;4965572;28;20066;-81
2022/03/17 11:19:12;;;;;;;62.67;45.95;;;;;;;;;;4950092;28;20154;-82
2022/03/17 11:21:38;;;;;;;64.70;45.28;;;;;;;;;;4942213;28;20044;-81
2022/03/17 11:24:05;;;;;;;64.50;44.22;;;;;;;;;;4944497;28;20130;-81
2022/03/17 11:26:40;;;;;;;62.00;42.65;;;;;;;;;;4947106;28;20045;-81
2022/03/17 11:29:10;;;;;;;60.58;43.42;;;;;;;;;;4942100;28;20047;-82
2022/03/17 11:31:55;;;;;;;61.08;41.65;;;;;;;;;;4959055;28;20039;-82
2022/03/17 11:34:37;;;;;;;58.20;41.65;;;;;;;;;;4945557;28;20135;-82
2022/03/17 11:37:26;;;;;;;56.28;41.85;;;;;;;;;;4992437;28;20105;-81
2022/03/17 11:39:52;;;;;;;56.25;41.45;;;;;;;;;;4978203;28;20382;-81
2022/03/17 11:42:52;;;;;;;58.55;41.13;;;;;;;;;;4950002;28;20046;-82
2022/03/17 11:45:18;;;;;;;59.33;41.65;;;;;;;;;;4986287;28;20138;-81
2022/03/17 11:47:54;;;;;;;61.88;43.45;;;;;;;;;;4954056;28;20190;-81
2022/03/17 11:50:42;;;;;;;62.60;44.58;;;;;;;;;;4949637;28;20063;-81
2022/03/17 11:53:22;;;;;;;67.63;45.58;;;;;;;;;;4964622;28;20134;-81
2022/03/17 11:55:53;;;;;;;62.30;45.40;;;;;;;;;;4966577;28;20828;-81
2022/03/17 11:58:30;;;;;;;68.85;48.03;;;;;;;;;;4962587;28;20504;-82
2022/03/17 12:01:03;;;;;;;63.90;45.75;;;;;;;;;;4964414;28;20039;-80
2022/03/17 12:03:33;;;;;;;63.67;46.17;;;;;;;;;;4956131;28;20034;-81
2022/03/17 12:06:09;;;;;;;68.25;48.70;;;;;;;;;;4955118;28;20039;-80
2022/03/17 12:08:36;;;;;;;63.30;44.25;;;;;;;;;;4946966;28;20094;-79
2022/03/17 12:11:10;;;;;;;61.85;45.38;;;;;;;;;;4973883;28;20043;-80
2022/03/17 12:13:36;;;;;;;64.85;46.63;;;;;;;;;;4946201;28;20043;-81
2022/03/17 12:16:03;;;;;;;63.95;45.33;;;;;;;;;;4948645;28;20062;-80
2022/03/17 12:18:29;;;;;;;64.32;45.55;;;;;;;;;;4964937;28;20046;-82
2022/03/17 12:20:57;;;;;;;66.25;48.40;;;;;;;;;;4947103;28;20060;-81
2022/03/17 12:23:45;;;;;;;69.40;45.95;;;;;;;;;;4942566;28;20040;-80
2022/03/17 12:26:12;;;;;;;64.53;45.08;;;;;;;;;;4952863;28;20042;-80
2022/03/17 12:28:44;;;;;;;65.60;44.22;;;;;;;;;;4961670;28;20035;-81
2022/03/17 12:31:10;;;;;;;60.03;42.60;;;;;;;;;;4932506;28;20054;-81
2022/03/17 12:33:39;;;;;;;60.55;43.58;;;;;;;;;;4946829;28;20408;-82
2022/03/17 12:36:06;;;;;;;60.28;43.65;;;;;;;;;;4952832;28;20043;-82
2022/03/17 12:38:34;;;;;;;56.80;42.65;;;;;;;;;;4955113;28;20043;-80
2022/03/17 12:41:00;;;;;;;62.17;41.97;;;;;;;;;;4954031;28;20045;-81
2022/03/17 12:43:26;;;;;;;60.88;42.70;;;;;;;;;;4964961;28;20058;-80
2022/03/17 12:45:52;;;;;;;59.45;41.38;;;;;;;;;;4942694;28;20039;-81
2022/03/17 12:48:19;;;;;;;56.90;40.65;;;;;;;;;;4951051;28;20560;-81
2022/03/17 12:50:45;;;;;;;51.88;40.60;;;;;;;;;;4954055;28;20034;-81
2022/03/17 12:53:11;;;;;;;54.20;39.65;;;;;;;;;;4949528;28;20244;-80
2022/03/17 12:55:37;;;;;;;57.92;39.78;;;;;;;;;;4970284;28;20045;-81
2022/03/17 12:58:04;;;;;;;54.58;39.20;;;;;;;;;;4946759;28;20079;-82
2022/03/17 13:00:30;;;;;;;51.05;38.70;;;;;;;;;;4970337;28;20117;-81
2022/03/17 13:02:58;;;;;;;62.90;40.72;;;;;;;;;;4950921;28;20043;-81
2022/03/17 13:08:11;;;;;;;56.63;39.45;;;;;;;;;;4971608;28;20058;-80
2022/03/17 13:16:09;;;;;;;52.13;38.25;;;;;;;;;;4979788;28;20642;-81
2022/03/17 13:18:51;;;;;;;54.42;39.05;;;;;;;;;;4960773;28;20051;-83
2022/03/17 13:21:22;;;;;;;57.55;40.25;;;;;;;;;;4976080;28;20034;-80
2022/03/17 13:23:49;;;;;;;52.67;39.08;;;;;;;;;;4946872;28;20643;-81
2022/03/17 13:26:28;;;;;;;57.25;39.67;;;;;;;;;;4950477;28;20039;-81
2022/03/17 13:29:01;;;;;;;56.13;41.13;;;;;;;;;;4940392;28;20038;-81
2022/03/17 13:31:43;;;;;;;55.47;41.47;;;;;;;;;;4961588;28;20034;-81
2022/03/17 13:34:29;;;;;;;53.65;39.70;;;;;;;;;;4951243;28;20045;-81
2022/03/17 13:36:59;;;;;;;62.97;42.72;;;;;;;;;;4938148;28;20039;-81
2022/03/17 13:39:35;;;;;;;59.53;43.85;;;;;;;;;;4959698;28;20122;-81
2022/03/17 13:42:11;;;;;;;57.42;41.03;;;;;;;;;;4946855;28;20122;-81
2022/03/17 13:44:55;;;;;;;;;;;;;;;;;;4967641;28;20043;-80
2022/03/17 13:47:24;;;;;;;55.03;40.08;;;;;;;;;;4986242;28;20013;-81
2022/03/17 13:50:09;;;;;;;52.78;40.75;;;;;;;;;;4967457;28;20043;-82
2022/03/17 13:52:36;;;;;;;54.95;40.22;;;;;;;;;;4962699;28;20105;-81
2022/03/17 13:55:01;;;;;;;55.85;40.92;;;;;;;;;;4951687;28;20368;-81
2022/03/17 13:57:27;;;;;;;54.95;41.22;;;;;;;;;;4947337;28;20027;-83
2022/03/17 13:59:53;;;;;;;55.63;40.60;;;;;;;;;;4968840;28;20075;-81
2022/03/17 14:02:22;;;;;;;59.25;41.47;;;;;;;;;;4948499;28;20515;-79
2022/03/17 14:04:54;;;;;;;59.13;42.38;;;;;;;;;;4943080;28;20047;-80
2022/03/17 14:07:21;;;;;;;56.90;42.05;;;;;;;;;;4966481;28;20046;-81
2022/03/17 14:09:46;;;;;;;54.50;41.42;;;;;;;;;;4938912;28;20046;-81
2022/03/17 14:12:12;;;;;;;54.75;40.45;;;;;;;;;;4946532;28;20074;-82
2022/03/17 14:14:38;;;;;;;55.63;41.38;;;;;;;;;;4956743;28;20046;-81
2022/03/17 14:17:04;;;;;;;60.55;42.67;;;;;;;;;;4955009;28;20043;-81
2022/03/17 14:19:30;;;;;;;58.95;43.03;;;;;;;;;;4966563;28;20407;-81
2022/03/17 14:24:41;;;;;;;55.05;41.22;;;;;;;;;;4967517;28;20050;-81
2022/03/17 14:27:07;;;;;;;59.38;42.75;;;;;;;;;;4953610;28;20047;-81
2022/03/17 14:29:33;;;;;;;55.85;41.65;;;;;;;;;;4931610;28;20055;-82
2022/03/17 14:32:01;;;;;;;60.42;42.17;;;;;;;;;;4964611;28;20057;-80
2022/03/17 14:34:27;;;;;;;59.13;44.42;;;;;;;;;;4946070;28;20035;-83
2022/03/17 14:36:53;;;;;;;58.30;43.33;;;;;;;;;;4943483;28;20055;-83
2022/03/17 14:39:19;;;;;;;59.25;43.05;;;;;;;;;;4950564;28;20049;-83
2022/03/17 14:41:45;;;;;;;56.70;42.70;;;;;;;;;;4966496;28;20125;-81
2022/03/17 14:44:11;;;;;;;55.25;42.58;;;;;;;;;;4965900;28;20046;-81